EPBY

Bydgoszcz Ignacy Jan Paderewski Airport

Bydgoszcz, Poland
METAR EPBY 201500Z 05009KT 9999 FEW039 02/M06 Q1021
Observed Flight Rules
Feb-20 @ 15:00 UTC (2 hours ago) Visual Flight Rules
Wind Visibility Clouds
50° at 9 knots 10,000+ meters
  • Few at 3,900' AGL
Temperatures Readings
Current 2°C / 36°F
Dewpoint -6°C / 21°F
Humidity 56%
Altimeter 30.15" Hg
Pressure 1021 hPa
Elevation 71
METAR EPBY 201500Z 05009KT 9999 FEW039 02/M06 Q1021
Observed Flight Rules
Feb-20 @ 15:00 UTC
(2 hours ago)
VFR
Wind Visibility
50° at 9 knots 10,000+ meters
Clouds
  • Few at 3,900' AGL
Temperature Dewpoint
2°C / 36°F -6°C / 21°F
Humidity Altimeter Pressure
56% 30.15" Hg 1021 hPa